createdAt,value
2019-01-15T00:01:19.229Z,2.45
2019-01-15T00:03:49.560Z,2.44
2019-01-15T00:06:20.595Z,2.47
2019-01-15T00:08:51.106Z,2.46
2019-01-15T00:11:22.163Z,2.50
2019-01-15T00:13:53.049Z,2.45
2019-01-15T00:16:23.783Z,2.41
2019-01-15T00:18:54.771Z,2.38
2019-01-15T00:21:25.431Z,2.35
2019-01-15T00:23:57.263Z,2.32
2019-01-15T00:26:28.102Z,2.31
2019-01-15T00:28:59.095Z,2.36
2019-01-15T00:31:29.780Z,2.33
2019-01-15T00:34:00.131Z,2.36
2019-01-15T00:36:31.883Z,2.37
2019-01-15T00:39:02.623Z,2.38
2019-01-15T00:41:33.329Z,2.45
2019-01-15T00:44:04.117Z,2.42
2019-01-15T00:46:34.567Z,2.38
2019-01-15T00:49:04.923Z,2.39
2019-01-15T00:51:35.995Z,2.36
2019-01-15T00:54:06.953Z,2.36
2019-01-15T00:56:37.991Z,2.39
2019-01-15T00:59:12.684Z,2.36
2019-01-15T01:01:43.316Z,2.36
2019-01-15T01:04:14.766Z,2.37
2019-01-15T01:06:45.186Z,2.40
2019-01-15T01:09:16.779Z,2.36
2019-01-15T01:11:49.822Z,2.40
2019-01-15T01:14:20.447Z,2.41
2019-01-15T01:16:51.173Z,2.42
2019-01-15T01:19:22.311Z,2.47
2019-01-15T01:21:52.943Z,2.48
2019-01-15T01:24:23.836Z,2.50
2019-01-15T01:26:55.082Z,2.52
2019-01-15T01:29:25.611Z,2.57
2019-01-15T01:32:01.467Z,2.59
2019-01-15T01:34:32.787Z,2.60
2019-01-15T01:37:03.708Z,2.61
2019-01-15T01:39:35.402Z,2.65
2019-01-15T01:42:05.765Z,2.67
2019-01-15T01:44:36.120Z,2.74
2019-01-15T01:47:06.817Z,2.73
2019-01-15T01:49:37.471Z,2.70
2019-01-15T01:52:08.359Z,2.72
2019-01-15T01:54:39.666Z,2.73
2019-01-15T01:57:10.849Z,2.79
2019-01-15T01:59:41.250Z,2.78
2019-01-15T02:02:14.353Z,2.78
2019-01-15T02:04:45.031Z,2.79
2019-01-15T02:07:15.420Z,2.77
2019-01-15T02:09:46.013Z,2.77
2019-01-15T02:12:17.074Z,2.72
2019-01-15T02:14:47.571Z,2.71
2019-01-15T02:17:17.933Z,2.71
2019-01-15T02:19:49.017Z,2.73
2019-01-15T02:22:19.638Z,2.74
2019-01-15T02:24:50.013Z,2.70
2019-01-15T02:27:21.928Z,2.72
2019-01-15T02:29:53.304Z,2.72
2019-01-15T02:32:28.525Z,2.72
2019-01-15T02:35:02.014Z,2.73
2019-01-15T02:37:35.581Z,2.76
2019-01-15T02:40:10.985Z,2.75
2019-01-15T02:42:46.901Z,2.76
2019-01-15T02:45:20.921Z,2.78
2019-01-15T02:47:54.761Z,2.81
2019-01-15T02:50:25.393Z,2.84
2019-01-15T02:52:59.324Z,2.79
2019-01-15T02:55:32.977Z,2.77
2019-01-15T02:58:06.520Z,2.77
2019-01-15T03:00:40.067Z,2.77
2019-01-15T03:03:14.589Z,2.79
2019-01-15T03:05:46.910Z,2.79
2019-01-15T03:08:20.408Z,2.78
2019-01-15T03:10:53.914Z,2.75
2019-01-15T03:13:28.020Z,2.72
2019-01-15T03:16:01.618Z,2.71
2019-01-15T03:18:35.139Z,2.75
2019-01-15T03:21:09.141Z,2.74
2019-01-15T03:23:41.404Z,2.77
2019-01-15T03:26:23.663Z,2.87
2019-01-15T03:28:57.590Z,2.81
2019-01-15T03:31:40.978Z,2.87
2019-01-15T03:34:14.415Z,2.83
2019-01-15T03:36:49.852Z,2.79
2019-01-15T03:39:23.540Z,2.77
2019-01-15T03:41:57.815Z,2.83
2019-01-15T03:44:32.001Z,2.81
2019-01-15T03:47:06.214Z,2.81
2019-01-15T03:49:39.885Z,2.83
2019-01-15T03:52:13.441Z,2.84
2019-01-15T03:54:47.890Z,2.82
2019-01-15T03:57:30.365Z,2.87
2019-01-15T04:00:04.123Z,2.83
2019-01-15T04:02:47.139Z,2.85
2019-01-15T04:05:29.404Z,2.76
2019-01-15T04:08:03.121Z,2.71
2019-01-15T04:10:36.843Z,2.66
2019-01-15T04:13:11.530Z,2.64
2019-01-15T04:15:44.838Z,2.63
2019-01-15T04:18:18.390Z,2.60
2019-01-15T04:20:51.728Z,2.58
2019-01-15T04:23:34.042Z,2.62
2019-01-15T04:26:16.765Z,2.60
2019-01-15T04:28:59.514Z,2.60
2019-01-15T04:31:33.182Z,2.64
2019-01-15T04:34:06.466Z,2.71
2019-01-15T04:36:40.084Z,2.74
2019-01-15T04:39:13.343Z,2.79
2019-01-15T04:41:46.652Z,2.83
2019-01-15T04:44:21.073Z,2.83
2019-01-15T04:46:54.716Z,2.76
2019-01-15T04:49:28.391Z,2.72
2019-01-15T04:52:02.263Z,2.66
2019-01-15T04:54:44.811Z,2.63
2019-01-15T04:57:18.460Z,2.56
2019-01-15T04:59:52.371Z,2.53
2019-01-15T05:02:36.425Z,2.59
2019-01-15T05:05:10.220Z,2.57
2019-01-15T05:07:43.805Z,2.62
2019-01-15T05:10:18.318Z,2.68
2019-01-15T05:12:52.276Z,2.72
2019-01-15T05:15:25.578Z,2.76
2019-01-15T05:17:59.537Z,2.78
2019-01-15T05:20:33.409Z,2.83
2019-01-15T05:23:07.083Z,2.88
2019-01-15T05:25:41.113Z,2.93
2019-01-15T05:28:32.081Z,2.98
2019-01-15T05:31:14.837Z,2.98
2019-01-15T05:33:48.760Z,2.94
2019-01-15T05:36:20.879Z,2.94
2019-01-15T05:39:08.584Z,3.02
2019-01-15T05:41:43.114Z,3.00
2019-01-15T05:44:15.470Z,3.00
2019-01-15T05:46:49.186Z,3.01
2019-01-15T05:49:22.938Z,3.04
2019-01-15T05:51:56.378Z,3.07
2019-01-15T05:54:30.852Z,3.10
2019-01-15T05:57:13.110Z,3.19
2019-01-15T05:59:46.857Z,3.21
2019-01-15T06:02:20.127Z,3.21
2019-01-15T06:04:53.808Z,3.23
2019-01-15T06:07:33.480Z,3.24
2019-01-15T06:10:02.175Z,3.26
2019-01-15T06:12:35.555Z,3.30
2019-01-15T06:15:11.681Z,3.32
2019-01-15T06:17:45.179Z,3.35
2019-01-15T06:20:19.204Z,3.37
2019-01-15T06:23:01.700Z,3.40
2019-01-15T06:25:35.264Z,3.41
2019-01-15T06:28:08.821Z,3.40
2019-01-15T06:30:42.047Z,3.41
2019-01-15T06:33:15.727Z,3.45
2019-01-15T06:35:49.030Z,3.43
2019-01-15T06:38:22.361Z,3.42
2019-01-15T06:41:05.428Z,3.50
2019-01-15T06:43:38.955Z,3.44
2019-01-15T06:46:12.583Z,3.41
2019-01-15T06:48:46.381Z,3.40
2019-01-15T06:51:19.883Z,3.44
2019-01-15T06:53:53.171Z,3.42
2019-01-15T06:56:26.888Z,3.43
2019-01-15T06:59:00.519Z,3.44
2019-01-15T07:01:33.812Z,3.45
2019-01-15T07:04:07.068Z,3.47
2019-01-15T07:06:40.855Z,3.50
2019-01-15T07:09:14.584Z,3.50
2019-01-15T07:11:47.005Z,3.52
2019-01-15T07:14:20.554Z,3.58
2019-01-15T07:16:53.313Z,3.56
2019-01-15T07:19:26.115Z,3.55
2019-01-15T07:21:59.439Z,3.53
2019-01-15T07:24:33.881Z,3.55
2019-01-15T07:27:16.053Z,3.60
2019-01-15T07:29:49.702Z,3.54
2019-01-15T07:32:23.236Z,3.52
2019-01-15T07:34:56.945Z,3.52
2019-01-15T07:37:31.085Z,3.54
2019-01-15T07:40:16.677Z,3.59
2019-01-15T07:42:50.553Z,3.54
2019-01-15T07:45:33.042Z,3.65
2019-01-15T07:48:06.301Z,3.60
2019-01-15T07:50:39.611Z,3.63
2019-01-15T07:53:12.789Z,3.68
2019-01-15T07:55:46.773Z,3.66
2019-01-15T07:58:20.553Z,3.68
2019-01-15T08:00:54.321Z,3.74
2019-01-15T08:03:28.876Z,3.78
2019-01-15T08:06:01.782Z,3.78
2019-01-15T08:08:36.894Z,3.77
2019-01-15T08:11:09.660Z,3.74
2019-01-15T08:13:42.830Z,3.74
2019-01-15T08:16:16.767Z,3.71
2019-01-15T08:18:58.721Z,3.72
2019-01-15T08:21:32.208Z,3.68
2019-01-15T08:24:05.564Z,3.66
2019-01-15T08:26:39.393Z,3.68
2019-01-15T08:29:13.957Z,3.68
2019-01-15T08:31:56.578Z,3.71
2019-01-15T08:34:44.725Z,3.70
2019-01-15T08:37:16.693Z,3.67
2019-01-15T08:39:50.020Z,3.66
2019-01-15T08:42:23.678Z,3.62
2019-01-15T08:44:57.563Z,3.64
2019-01-15T08:47:32.753Z,3.66
2019-01-15T08:50:09.294Z,3.66
2019-01-15T08:52:42.464Z,3.66
2019-01-15T08:55:24.284Z,3.72
2019-01-15T08:57:59.355Z,3.70
2019-01-15T09:00:33.349Z,3.72
2019-01-15T09:03:06.812Z,3.74
2019-01-15T09:05:40.446Z,3.78
2019-01-15T09:08:13.847Z,3.83
2019-01-15T09:10:46.908Z,3.84
2019-01-15T09:13:20.224Z,3.86
2019-01-15T09:16:02.959Z,3.97
2019-01-15T09:18:36.110Z,3.98
2019-01-15T09:21:09.857Z,4.04
2019-01-15T09:23:43.813Z,4.06
2019-01-15T09:26:16.635Z,4.08
2019-01-15T09:29:00.051Z,4.19
2019-01-15T09:31:33.662Z,4.12
2019-01-15T09:34:06.442Z,4.17
2019-01-15T09:36:39.757Z,4.22
2019-01-15T09:39:22.117Z,4.32
2019-01-15T09:41:55.594Z,4.30
2019-01-15T09:44:34.005Z,4.36
2019-01-15T09:47:04.624Z,4.39
2019-01-15T09:49:39.420Z,4.41
2019-01-15T09:52:20.451Z,4.44
2019-01-15T09:54:47.156Z,4.47
2019-01-15T09:57:29.344Z,4.55
2019-01-15T10:00:02.507Z,4.54
2019-01-15T10:02:36.099Z,4.56
2019-01-15T10:05:10.288Z,4.62
2019-01-15T10:07:44.441Z,4.67
2019-01-15T10:10:26.539Z,4.74
2019-01-15T10:13:00.291Z,4.75
2019-01-15T10:15:33.474Z,4.83
2019-01-15T10:18:06.289Z,4.83
2019-01-15T10:20:48.546Z,4.92
2019-01-15T10:23:22.270Z,4.89
2019-01-15T10:25:55.483Z,4.91
2019-01-15T10:28:28.643Z,4.94
2019-01-15T10:31:59.745Z,5.02
2019-01-15T10:34:36.989Z,4.99
2019-01-15T10:37:10.531Z,5.05
2019-01-15T10:39:44.027Z,5.09
2019-01-15T10:42:17.553Z,5.11
2019-01-15T10:45:00.599Z,5.17
2019-01-15T10:47:34.823Z,5.14
2019-01-15T10:50:07.924Z,5.20
2019-01-15T10:52:41.430Z,5.23
2019-01-15T10:55:14.938Z,5.23
2019-01-15T10:57:48.156Z,5.25
2019-01-15T11:00:21.831Z,5.29
2019-01-15T11:02:55.513Z,5.26
2019-01-15T11:05:29.884Z,5.30
2019-01-15T11:08:03.311Z,5.32
2019-01-15T11:10:36.438Z,5.31
2019-01-15T11:13:10.104Z,5.35
2019-01-15T11:15:43.846Z,5.36
2019-01-15T11:18:17.141Z,5.38
2019-01-15T11:20:50.658Z,5.37
2019-01-15T11:23:23.950Z,5.38
2019-01-15T11:26:05.997Z,5.45
2019-01-15T11:28:39.431Z,5.45
2019-01-15T11:31:13.096Z,5.49
2019-01-15T11:33:46.849Z,5.46
2019-01-15T11:36:20.337Z,5.48
2019-01-15T11:39:10.802Z,5.54
2019-01-15T11:41:44.080Z,5.54
2019-01-15T11:44:15.958Z,5.54
2019-01-15T11:46:49.142Z,5.53
2019-01-15T11:49:31.008Z,5.59
2019-01-15T11:52:04.750Z,5.57
2019-01-15T11:54:38.349Z,5.58
2019-01-15T11:57:11.527Z,5.60
2019-01-15T11:59:44.745Z,5.61
2019-01-15T12:02:48.390Z,5.61
2019-01-15T12:05:56.843Z,5.63
2019-01-15T12:08:39.791Z,5.58
2019-01-15T12:11:44.071Z,5.63
2019-01-15T12:14:38.199Z,5.57
2019-01-15T12:17:38.678Z,5.62
2019-01-15T12:20:27.478Z,5.58
2019-01-15T12:23:19.967Z,5.57
2019-01-15T12:26:13.491Z,5.57
2019-01-15T12:29:21.618Z,5.64
2019-01-15T12:32:12.375Z,5.62
2019-01-15T12:34:54.718Z,5.63
2019-01-15T12:38:02.913Z,5.72
2019-01-15T12:41:04.492Z,5.65
2019-01-15T12:44:06.340Z,5.66
2019-01-15T12:47:06.811Z,5.73
2019-01-15T12:50:18.441Z,5.70
2019-01-15T12:53:09.367Z,5.68
2019-01-15T12:56:11.193Z,5.70
2019-01-15T12:59:02.507Z,5.70
2019-01-15T13:01:54.969Z,5.72
2019-01-15T13:05:12.486Z,5.75
2019-01-15T13:08:21.257Z,5.74
2019-01-15T13:11:19.336Z,5.70
2019-01-15T13:14:28.515Z,5.77
2019-01-15T13:17:19.575Z,5.68
2019-01-15T13:20:10.977Z,5.75
2019-01-15T13:23:13.059Z,5.72
2019-01-15T13:26:10.060Z,5.73
2019-01-15T13:29:05.143Z,5.75
2019-01-15T13:31:57.943Z,5.74
2019-01-15T13:34:58.582Z,5.76
2019-01-15T13:38:07.906Z,5.87
2019-01-15T13:40:54.140Z,5.86
2019-01-15T13:43:45.193Z,5.87
2019-01-15T13:46:30.718Z,5.87
2019-01-15T13:49:38.722Z,5.90
2019-01-15T13:52:29.867Z,5.91
2019-01-15T13:55:22.491Z,5.96
2019-01-15T13:58:26.926Z,5.95
2019-01-15T14:01:19.391Z,5.99
2019-01-15T14:04:08.116Z,5.98
2019-01-15T14:06:56.086Z,5.98
2019-01-15T14:09:55.653Z,5.98
2019-01-15T14:12:42.844Z,6.00
2019-01-15T14:15:35.907Z,6.01
2019-01-15T14:18:28.501Z,6.02
2019-01-15T14:21:16.763Z,6.03
2019-01-15T14:24:05.733Z,6.04
2019-01-15T14:26:55.004Z,6.04
2019-01-15T14:29:44.552Z,6.03
2019-01-15T14:32:33.869Z,6.03
2019-01-15T14:35:29.419Z,6.07
2019-01-15T14:38:34.525Z,6.06
2019-01-15T14:41:23.855Z,6.05
2019-01-15T14:44:22.602Z,6.06
2019-01-15T14:47:12.580Z,6.06
2019-01-15T14:50:00.493Z,6.11
2019-01-15T14:52:48.365Z,6.11
2019-01-15T14:55:36.402Z,6.08
2019-01-15T14:58:23.886Z,6.08
2019-01-15T15:01:12.419Z,6.11
2019-01-15T15:03:53.906Z,6.10
2019-01-15T15:07:01.082Z,6.11
2019-01-15T15:09:49.649Z,6.12
2019-01-15T15:12:38.897Z,6.09
2019-01-15T15:15:28.307Z,6.11
2019-01-15T15:18:21.841Z,6.12
2019-01-15T15:21:10.227Z,6.10
2019-01-15T15:24:12.969Z,6.11
2019-01-15T15:26:55.643Z,6.11
2019-01-15T15:29:46.057Z,6.08
2019-01-15T15:32:38.847Z,6.10
2019-01-15T15:35:28.354Z,6.12
2019-01-15T15:38:18.657Z,6.12
2019-01-15T15:41:18.215Z,6.14
2019-01-15T15:44:07.613Z,6.15
2019-01-15T15:46:56.318Z,6.14
2019-01-15T15:49:47.089Z,6.16
2019-01-15T15:52:30.853Z,6.16
2019-01-15T15:55:24.490Z,6.15
2019-01-15T15:58:14.097Z,6.16
2019-01-15T16:01:02.320Z,6.17
2019-01-15T16:03:54.737Z,6.20
2019-01-15T16:06:45.635Z,6.18
2019-01-15T16:09:50.671Z,6.19
2019-01-15T16:12:39.113Z,6.18
2019-01-15T16:15:29.218Z,6.19
2019-01-15T16:18:17.713Z,6.23
2019-01-15T16:21:26.540Z,6.22
2019-01-15T16:24:15.692Z,6.23
2019-01-15T16:27:20.667Z,6.25
2019-01-15T16:30:09.654Z,6.23
2019-01-15T16:33:08.057Z,6.26
2019-01-15T16:36:04.400Z,6.26
2019-01-15T16:39:04.277Z,6.27
2019-01-15T16:41:52.239Z,6.26
2019-01-15T16:44:40.468Z,6.26
2019-01-15T16:47:29.153Z,6.28
2019-01-15T16:50:17.206Z,6.28
2019-01-15T16:53:06.940Z,6.31
2019-01-15T16:55:54.963Z,6.33
2019-01-15T16:58:59.961Z,6.31
2019-01-15T17:01:57.838Z,6.33
2019-01-15T17:04:46.877Z,6.34
2019-01-15T17:07:42.435Z,6.35
2019-01-15T17:10:30.309Z,6.34
2019-01-15T17:13:26.474Z,6.32
2019-01-15T17:16:19.062Z,6.33
2019-01-15T17:19:11.741Z,6.36
2019-01-15T17:23:14.669Z,6.41
2019-01-15T17:26:27.064Z,6.42
2019-01-15T17:29:42.498Z,6.39
2019-01-15T17:32:49.691Z,6.38
2019-01-15T17:35:44.937Z,6.38
2019-01-15T17:38:36.235Z,6.40
2019-01-15T17:41:30.168Z,6.42
2019-01-15T17:44:15.015Z,6.41
2019-01-15T17:47:05.303Z,6.43
2019-01-15T17:50:07.313Z,6.42
2019-01-15T17:53:05.652Z,6.43
2019-01-15T17:55:56.377Z,6.41
2019-01-15T17:59:19.797Z,6.46
2019-01-15T18:02:10.640Z,6.44
2019-01-15T18:05:16.128Z,6.47
2019-01-15T18:08:23.084Z,6.43
2019-01-15T18:11:12.628Z,6.42
2019-01-15T18:14:10.448Z,6.42
2019-01-15T18:17:03.870Z,6.43
2019-01-15T18:19:48.930Z,6.44
2019-01-15T18:23:19.313Z,6.49
2019-01-15T18:26:11.384Z,6.45
2019-01-15T18:29:03.169Z,6.44
2019-01-15T18:32:14.896Z,6.45
2019-01-15T18:35:01.737Z,6.50
2019-01-15T18:37:48.699Z,6.46
2019-01-15T18:40:52.285Z,6.49
2019-01-15T18:43:47.423Z,6.50
2019-01-15T18:46:55.770Z,6.49
2019-01-15T18:49:35.052Z,6.52
2019-01-15T18:52:27.770Z,6.47
2019-01-15T18:55:32.314Z,6.49
2019-01-15T18:58:24.091Z,6.48
2019-01-15T19:01:31.626Z,6.46
2019-01-15T19:04:23.752Z,6.48
2019-01-15T19:07:06.105Z,6.51
2019-01-15T19:10:05.276Z,6.52
2019-01-15T19:12:58.510Z,6.55
2019-01-15T19:16:07.374Z,6.51
2019-01-15T19:19:02.332Z,6.52
2019-01-15T19:22:23.369Z,6.55
2019-01-15T19:25:32.210Z,6.56
2019-01-15T19:28:23.380Z,6.50
2019-01-15T19:31:15.746Z,6.52
2019-01-15T19:34:16.417Z,6.51
2019-01-15T19:37:16.883Z,6.54
2019-01-15T19:39:56.225Z,6.53
2019-01-15T19:42:57.296Z,6.54
2019-01-15T19:46:11.565Z,6.57
2019-01-15T19:49:26.871Z,6.51
2019-01-15T19:52:25.791Z,6.54
2019-01-15T19:55:24.821Z,6.50
2019-01-15T19:58:28.287Z,6.56
2019-01-15T20:01:24.534Z,6.50
2019-01-15T20:04:23.034Z,6.51
2019-01-15T20:07:31.006Z,6.59
2019-01-15T20:10:44.905Z,6.55
2019-01-15T20:13:39.549Z,6.53
2019-01-15T20:16:42.670Z,6.53
2019-01-15T20:19:40.570Z,6.54
2019-01-15T20:22:27.622Z,6.57
2019-01-15T20:25:14.627Z,6.53
2019-01-15T20:28:16.119Z,6.55
2019-01-15T20:31:23.892Z,6.58
2019-01-15T20:34:45.642Z,6.56
2019-01-15T20:37:37.981Z,6.51
2019-01-15T20:40:47.086Z,6.55
2019-01-15T20:43:38.141Z,6.50
2019-01-15T20:46:30.295Z,6.53
2019-01-15T20:49:25.342Z,6.55
2019-01-15T20:52:20.950Z,6.57
2019-01-15T20:55:13.639Z,6.57
2019-01-15T20:58:12.899Z,6.61
2019-01-15T21:01:03.021Z,6.58
2019-01-15T21:04:00.836Z,6.57
2019-01-15T21:07:08.344Z,6.60
2019-01-15T21:10:31.712Z,6.68
2019-01-15T21:17:41.532Z,6.65
2019-01-15T21:21:01.484Z,6.65
2019-01-15T21:23:56.532Z,6.63
2019-01-15T21:26:47.632Z,6.64
2019-01-15T21:29:30.012Z,6.66
2019-01-15T21:32:21.943Z,6.67
2019-01-15T21:35:13.295Z,6.67
2019-01-15T21:38:04.761Z,6.69
2019-01-15T21:41:06.419Z,6.71
2019-01-15T21:44:10.970Z,6.70
2019-01-15T21:47:11.908Z,6.74
2019-01-15T21:50:20.254Z,6.71
2019-01-15T21:53:18.148Z,6.77
2019-01-15T21:56:16.805Z,6.77
2019-01-15T21:59:06.012Z,6.76
2019-01-15T22:02:14.722Z,6.78
2019-01-15T22:05:08.893Z,6.77
2019-01-15T22:08:00.020Z,6.77
2019-01-15T22:11:04.517Z,6.76
2019-01-15T22:14:01.108Z,6.77
2019-01-15T22:17:18.282Z,6.82
2019-01-15T22:20:13.050Z,6.75
2019-01-15T22:23:23.472Z,6.76
2019-01-15T22:26:14.863Z,6.76
2019-01-15T22:29:08.056Z,6.74
2019-01-15T22:32:06.236Z,6.77
2019-01-15T22:35:27.897Z,6.87
2019-01-15T22:38:23.804Z,6.79
2019-01-15T22:41:17.335Z,6.83
2019-01-15T22:44:09.714Z,6.80
2019-01-15T22:47:00.951Z,6.85
2019-01-15T22:50:10.923Z,6.83
2019-01-15T22:53:26.756Z,6.85
2019-01-15T22:56:29.454Z,6.87
2019-01-15T22:59:27.446Z,6.82
2019-01-15T23:02:18.841Z,6.80
2019-01-15T23:05:06.436Z,6.82
2019-01-15T23:08:10.837Z,6.84
2019-01-15T23:11:02.802Z,6.79
2019-01-15T23:13:46.969Z,6.81
2019-01-15T23:16:41.320Z,6.80
2019-01-15T23:19:31.528Z,6.77
2019-01-15T23:22:32.501Z,6.78
2019-01-15T23:25:25.048Z,6.74
2019-01-15T23:28:24.923Z,6.75
2019-01-15T23:31:29.671Z,6.78
2019-01-15T23:34:44.632Z,6.79
2019-01-15T23:37:35.878Z,6.74
2019-01-15T23:40:27.094Z,6.72
2019-01-15T23:43:18.884Z,6.70
2019-01-15T23:46:41.011Z,6.74
2019-01-15T23:49:22.242Z,6.71
2019-01-15T23:52:13.889Z,6.67
2019-01-15T23:55:05.839Z,6.67
2019-01-15T23:57:47.619Z,6.66
